createdAt,value
2018-07-21T00:00:04.012Z,0.00
2018-07-21T00:01:03.983Z,0.00
2018-07-21T00:02:04.003Z,0.00
2018-07-21T00:03:03.980Z,0.00
2018-07-21T00:04:03.953Z,0.00
2018-07-21T00:05:03.994Z,0.00
2018-07-21T00:06:03.965Z,0.00
2018-07-21T00:07:03.931Z,0.00
2018-07-21T00:08:03.898Z,0.00
2018-07-21T00:09:03.919Z,0.00
2018-07-21T00:10:03.851Z,0.00
2018-07-21T00:11:03.956Z,0.00
2018-07-21T00:12:03.867Z,0.00
2018-07-21T00:13:03.832Z,0.00
2018-07-21T00:14:03.874Z,0.00
2018-07-21T00:15:03.831Z,0.00
2018-07-21T00:16:03.812Z,0.00
2018-07-21T00:17:03.768Z,0.00
2018-07-21T00:18:03.759Z,0.00
2018-07-21T00:19:03.751Z,0.00
2018-07-21T00:20:03.735Z,0.00
2018-07-21T00:21:03.760Z,0.00
2018-07-21T00:22:03.719Z,0.00
2018-07-21T00:23:03.744Z,0.00
2018-07-21T00:24:03.725Z,0.00
2018-07-21T00:25:03.707Z,0.00
2018-07-21T00:26:03.694Z,0.00
2018-07-21T00:27:03.685Z,0.00
2018-07-21T00:28:03.654Z,0.00
2018-07-21T00:29:03.646Z,0.00
2018-07-21T00:30:03.640Z,0.00
2018-07-21T00:31:03.663Z,0.00
2018-07-21T00:32:03.605Z,0.00
2018-07-21T00:33:03.588Z,0.00
2018-07-21T00:34:03.585Z,0.00
2018-07-21T00:35:03.588Z,0.00
2018-07-21T00:36:03.600Z,0.00
2018-07-21T00:37:03.560Z,0.00
2018-07-21T00:38:03.549Z,0.00
2018-07-21T00:39:03.518Z,0.00
2018-07-21T00:40:03.508Z,0.00
2018-07-21T00:41:03.519Z,0.00
2018-07-21T00:42:03.518Z,0.00
2018-07-21T00:43:03.473Z,0.00
2018-07-21T00:44:03.461Z,0.00
2018-07-21T00:45:03.465Z,0.00
2018-07-21T00:46:03.457Z,0.00
2018-07-21T00:47:03.422Z,0.00
2018-07-21T00:48:03.413Z,0.00
2018-07-21T00:49:03.403Z,0.00
2018-07-21T00:50:03.393Z,0.00
2018-07-21T00:51:03.397Z,0.00
2018-07-21T00:52:03.365Z,0.00
2018-07-21T00:53:03.362Z,0.00
2018-07-21T00:54:03.345Z,0.00
2018-07-21T00:55:03.331Z,0.00
2018-07-21T00:56:03.349Z,0.00
2018-07-21T00:57:03.306Z,0.00
2018-07-21T00:58:03.298Z,0.00
2018-07-21T00:59:03.288Z,0.00
2018-07-21T01:00:03.273Z,0.00
2018-07-21T01:01:03.281Z,0.00
2018-07-21T01:02:03.251Z,0.00
2018-07-21T01:03:03.240Z,0.00
2018-07-21T01:04:03.222Z,0.00
2018-07-21T01:05:03.220Z,0.00
2018-07-21T01:06:03.224Z,0.00
2018-07-21T01:07:03.196Z,0.00
2018-07-21T01:08:03.178Z,0.00
2018-07-21T01:09:03.170Z,0.00
2018-07-21T01:10:03.154Z,0.00
2018-07-21T01:11:03.172Z,0.00
2018-07-21T01:12:03.131Z,0.00
2018-07-21T01:13:03.122Z,0.00
2018-07-21T01:14:03.114Z,0.00
2018-07-21T01:15:03.100Z,0.00
2018-07-21T01:16:03.109Z,0.00
2018-07-21T01:17:03.080Z,0.00
2018-07-21T01:18:03.058Z,0.00
2018-07-21T01:19:03.055Z,0.00
2018-07-21T01:20:03.044Z,0.00
2018-07-21T01:21:03.046Z,0.00
2018-07-21T01:22:03.020Z,0.00
2018-07-21T01:23:03.000Z,0.00
2018-07-21T01:24:02.993Z,0.00
2018-07-21T01:25:02.979Z,0.00
2018-07-21T01:26:02.994Z,0.00
2018-07-21T01:27:02.956Z,0.00
2018-07-21T01:28:02.947Z,0.00
2018-07-21T01:29:02.933Z,0.00
2018-07-21T01:30:02.925Z,0.00
2018-07-21T01:31:02.935Z,0.00
2018-07-21T01:32:02.898Z,0.00
2018-07-21T01:33:02.884Z,0.00
2018-07-21T01:34:02.880Z,0.00
2018-07-21T01:35:02.866Z,0.00
2018-07-21T01:36:02.884Z,0.00
2018-07-21T01:37:02.839Z,0.00
2018-07-21T01:38:02.824Z,0.00
2018-07-21T01:39:02.821Z,0.00
2018-07-21T01:40:02.809Z,0.00
2018-07-21T01:41:02.820Z,0.00
2018-07-21T01:42:02.781Z,0.00
2018-07-21T01:43:02.773Z,0.00
2018-07-21T01:44:02.760Z,0.00
2018-07-21T01:45:02.744Z,0.00
2018-07-21T01:46:02.764Z,0.00
2018-07-21T01:47:02.721Z,0.00
2018-07-21T01:48:02.716Z,0.00
2018-07-21T01:49:02.702Z,0.00
2018-07-21T01:50:02.688Z,0.00
2018-07-21T01:51:02.704Z,0.00
2018-07-21T01:52:02.660Z,0.00
2018-07-21T01:53:02.658Z,0.00
2018-07-21T01:54:02.639Z,0.00
2018-07-21T01:55:02.634Z,0.00
2018-07-21T01:56:02.616Z,0.00
2018-07-21T01:57:02.634Z,0.00
2018-07-21T01:58:02.592Z,0.00
2018-07-21T01:59:02.584Z,0.00
2018-07-21T02:00:02.574Z,0.00
2018-07-21T02:01:02.560Z,0.00
2018-07-21T02:02:02.585Z,0.00
2018-07-21T02:03:02.539Z,0.00
2018-07-21T02:04:02.526Z,0.00
2018-07-21T02:05:02.520Z,0.00
2018-07-21T02:06:02.496Z,0.00
2018-07-21T02:07:02.494Z,0.00
2018-07-21T02:08:02.501Z,0.00
2018-07-21T02:09:02.470Z,0.00
2018-07-21T02:10:02.454Z,0.00
2018-07-21T02:11:02.444Z,0.00
2018-07-21T02:12:02.427Z,0.00
2018-07-21T02:13:02.448Z,0.00
2018-07-21T02:14:02.403Z,0.00
2018-07-21T02:15:02.400Z,0.00
2018-07-21T02:16:02.381Z,0.00
2018-07-21T02:17:02.376Z,0.00
2018-07-21T02:18:02.390Z,0.00
2018-07-21T02:19:02.353Z,0.00
2018-07-21T02:20:02.342Z,0.00
2018-07-21T02:21:02.326Z,0.00
2018-07-21T02:22:02.314Z,0.00
2018-07-21T02:23:02.329Z,0.00
2018-07-21T02:24:02.330Z,0.00
2018-07-21T02:25:02.283Z,0.00
2018-07-21T02:26:02.268Z,0.00
2018-07-21T02:27:02.287Z,0.00
2018-07-21T02:28:02.278Z,0.00
2018-07-21T02:29:02.227Z,0.00
2018-07-21T02:30:02.219Z,0.00
2018-07-21T02:31:02.212Z,0.00
2018-07-21T02:32:02.195Z,0.00
2018-07-21T02:33:02.190Z,0.00
2018-07-21T02:34:02.197Z,0.00
2018-07-21T02:35:02.157Z,0.00
2018-07-21T02:36:02.146Z,0.00
2018-07-21T02:37:02.138Z,0.00
2018-07-21T02:38:02.153Z,0.00
2018-07-21T02:39:02.144Z,0.00
2018-07-21T02:40:02.103Z,0.00
2018-07-21T02:41:02.106Z,0.00
2018-07-21T02:42:02.084Z,0.00
2018-07-21T02:43:02.067Z,0.00
2018-07-21T02:44:02.081Z,0.00
2018-07-21T02:45:02.045Z,0.00
2018-07-21T02:46:02.029Z,0.00
2018-07-21T02:47:02.028Z,0.00
2018-07-21T02:48:02.008Z,0.00
2018-07-21T02:49:02.035Z,0.00
2018-07-21T02:50:01.982Z,0.00
2018-07-21T02:51:01.979Z,0.00
2018-07-21T02:52:01.962Z,0.00
2018-07-21T02:53:01.947Z,0.00
2018-07-21T02:54:01.941Z,0.00
2018-07-21T02:55:01.961Z,0.00
2018-07-21T02:56:01.912Z,0.00
2018-07-21T02:57:01.910Z,0.00
2018-07-21T02:58:01.897Z,0.00
2018-07-21T02:59:01.882Z,4.00
2018-07-21T03:00:01.893Z,4.00
2018-07-21T03:01:01.861Z,4.00
2018-07-21T03:02:01.853Z,0.00
2018-07-21T03:03:01.879Z,4.00
2018-07-21T03:04:01.830Z,4.00
2018-07-21T03:05:01.836Z,4.00
2018-07-21T03:06:01.807Z,4.00
2018-07-21T03:07:01.787Z,4.00
2018-07-21T03:08:01.781Z,8.00
2018-07-21T03:09:01.767Z,4.00
2018-07-21T03:10:01.805Z,8.00
2018-07-21T03:11:01.745Z,8.00
2018-07-21T03:12:01.737Z,12.00
2018-07-21T03:13:01.723Z,12.00
2018-07-21T03:14:01.709Z,16.00
2018-07-21T03:15:01.723Z,16.00
2018-07-21T03:16:01.683Z,20.00
2018-07-21T03:17:01.683Z,24.00
2018-07-21T03:18:01.664Z,24.00
2018-07-21T03:19:01.667Z,28.00
2018-07-21T03:20:01.667Z,32.00
2018-07-21T03:21:01.628Z,36.00
2018-07-21T03:22:01.621Z,40.00
2018-07-21T03:23:01.606Z,48.00
2018-07-21T03:24:01.601Z,56.00
2018-07-21T03:25:01.610Z,60.00
2018-07-21T03:26:01.578Z,68.00
2018-07-21T03:27:01.557Z,76.00
2018-07-21T03:28:01.552Z,84.00
2018-07-21T03:29:01.538Z,92.00
2018-07-21T03:30:01.548Z,100.00
2018-07-21T03:31:01.534Z,108.00
2018-07-21T03:32:01.509Z,116.00
2018-07-21T03:33:01.496Z,124.00
2018-07-21T03:34:01.488Z,132.00
2018-07-21T03:35:01.500Z,144.00
2018-07-21T03:36:01.465Z,152.00
2018-07-21T03:37:01.446Z,164.00
2018-07-21T03:38:01.442Z,176.00
2018-07-21T03:39:01.421Z,192.00
2018-07-21T03:40:01.411Z,204.00
2018-07-21T03:41:01.432Z,212.00
2018-07-21T03:42:01.392Z,228.00
2018-07-21T03:43:01.379Z,236.00
2018-07-21T03:44:01.375Z,252.00
2018-07-21T03:45:01.353Z,268.00
2018-07-21T03:46:01.369Z,280.00
2018-07-21T03:47:01.337Z,296.00
2018-07-21T03:48:01.321Z,316.00
2018-07-21T03:49:01.322Z,336.00
2018-07-21T03:50:01.335Z,352.00
2018-07-21T03:51:01.291Z,376.00
2018-07-21T03:52:01.273Z,400.00
2018-07-21T03:53:01.271Z,420.00
2018-07-21T03:54:01.252Z,444.00
2018-07-21T03:55:01.301Z,468.00
2018-07-21T03:56:01.262Z,492.00
2018-07-21T03:57:01.219Z,520.00
2018-07-21T03:58:01.211Z,544.00
2018-07-21T03:59:01.200Z,560.00
2018-07-21T04:00:01.184Z,576.00
2018-07-21T04:01:01.204Z,588.00
2018-07-21T04:02:01.166Z,608.00
2018-07-21T04:03:01.152Z,624.00
2018-07-21T04:04:01.141Z,652.00
2018-07-21T04:05:01.132Z,680.00
2018-07-21T04:06:01.150Z,716.00
2018-07-21T04:07:01.103Z,748.00
2018-07-21T04:08:01.094Z,776.00
2018-07-21T04:09:01.151Z,800.00
2018-07-21T04:10:01.078Z,828.00
2018-07-21T04:11:01.082Z,852.00
2018-07-21T04:12:01.047Z,880.00
2018-07-21T04:13:01.044Z,908.00
2018-07-21T04:14:01.031Z,936.00
2018-07-21T04:15:01.015Z,960.00
2018-07-21T04:16:01.026Z,984.00
2018-07-21T04:17:00.997Z,1020.00
2018-07-21T04:18:00.980Z,1056.00
2018-07-21T04:19:00.973Z,1092.00
2018-07-21T04:20:00.954Z,1132.00
2018-07-21T04:21:00.977Z,1172.00
2018-07-21T04:22:00.932Z,1196.00
2018-07-21T04:23:00.929Z,1212.00
2018-07-21T04:24:00.909Z,1228.00
2018-07-21T04:25:00.906Z,1240.00
2018-07-21T04:26:00.920Z,1252.00
2018-07-21T04:27:00.884Z,1268.00
2018-07-21T04:28:00.865Z,1276.00
2018-07-21T04:29:00.861Z,1276.00
2018-07-21T04:30:00.843Z,1276.00
2018-07-21T04:31:00.833Z,1272.00
2018-07-21T04:32:00.847Z,1276.00
2018-07-21T04:33:00.808Z,1284.00
2018-07-21T04:34:00.793Z,1296.00
2018-07-21T04:35:00.791Z,1312.00
2018-07-21T04:36:00.772Z,1328.00
2018-07-21T04:37:00.789Z,1340.00
2018-07-21T04:38:00.756Z,1344.00
2018-07-21T04:39:00.735Z,1356.00
2018-07-21T04:40:00.734Z,1368.00
2018-07-21T04:41:00.715Z,1368.00
2018-07-21T04:42:00.736Z,1376.00
2018-07-21T04:43:00.696Z,1392.00
2018-07-21T04:44:00.685Z,1416.00
2018-07-21T04:45:00.674Z,1432.00
2018-07-21T04:46:00.660Z,1376.00
2018-07-21T04:47:00.670Z,1432.00
2018-07-21T04:48:00.639Z,1568.00
2018-07-21T04:49:00.618Z,1636.00
2018-07-21T04:50:00.610Z,1736.00
2018-07-21T04:51:00.636Z,1884.00
2018-07-21T04:52:00.586Z,2052.00
2018-07-21T04:53:00.584Z,2124.00
2018-07-21T04:54:00.668Z,2072.00
2018-07-21T04:55:00.552Z,1988.00
2018-07-21T04:56:00.546Z,1936.00
2018-07-21T04:57:00.561Z,1896.00
2018-07-21T04:58:00.526Z,1884.00
2018-07-21T04:59:00.510Z,1904.00
2018-07-21T05:00:00.492Z,1932.00
2018-07-21T05:01:00.528Z,1940.00
2018-07-21T05:02:00.502Z,1920.00
2018-07-21T05:03:00.456Z,1892.00
2018-07-21T05:04:00.450Z,1888.00
2018-07-21T05:05:00.438Z,1896.00
2018-07-21T05:06:00.431Z,1912.00
2018-07-21T05:07:00.437Z,1924.00
2018-07-21T05:08:00.404Z,1956.00
2018-07-21T05:09:00.388Z,2000.00
2018-07-21T05:10:00.374Z,2040.00
2018-07-21T05:11:00.372Z,2080.00
2018-07-21T05:12:00.392Z,2140.00
2018-07-21T05:13:00.348Z,2200.00
2018-07-21T05:14:00.329Z,2264.00
2018-07-21T05:15:00.319Z,2324.00
2018-07-21T05:16:00.307Z,2376.00
2018-07-21T05:17:00.318Z,2440.00
2018-07-21T05:18:00.284Z,2528.00
2018-07-21T05:19:00.276Z,2620.00
2018-07-21T05:20:00.275Z,2584.00
2018-07-21T05:21:00.256Z,2488.00
2018-07-21T05:22:00.265Z,2436.00
2018-07-21T05:23:00.226Z,2428.00
2018-07-21T05:24:00.222Z,2416.00
2018-07-21T05:25:00.201Z,2428.00
2018-07-21T05:26:00.193Z,2456.00
2018-07-21T05:27:00.211Z,2488.00
2018-07-21T05:28:00.170Z,2328.00
2018-07-21T05:29:00.160Z,2540.00
2018-07-21T05:30:00.148Z,2548.00
2018-07-21T05:31:00.132Z,2532.00
2018-07-21T05:32:00.144Z,2720.00
2018-07-21T05:33:00.111Z,2816.00
2018-07-21T05:34:00.097Z,2912.00
2018-07-21T05:35:00.096Z,2996.00
2018-07-21T05:36:00.076Z,3144.00
2018-07-21T05:37:00.092Z,3284.00
2018-07-21T05:38:00.055Z,3380.00
2018-07-21T05:39:00.101Z,3388.00
2018-07-21T05:40:00.027Z,3024.00
2018-07-21T05:41:00.024Z,3088.00
2018-07-21T05:42:00.028Z,3076.00
2018-07-21T05:43:00.001Z,3184.00
2018-07-21T05:43:59.981Z,3344.00
2018-07-21T05:44:59.982Z,3548.00
2018-07-21T05:45:59.963Z,3816.00
2018-07-21T05:46:59.979Z,4052.00
2018-07-21T05:47:59.943Z,3924.00
2018-07-21T05:48:59.929Z,3776.00
2018-07-21T05:49:59.918Z,3488.00
2018-07-21T05:50:59.907Z,3276.00
2018-07-21T05:51:59.912Z,3196.00
2018-07-21T05:52:59.887Z,3180.00
2018-07-21T05:53:59.868Z,3180.00
2018-07-21T05:54:59.864Z,3192.00
2018-07-21T05:55:59.849Z,3208.00
2018-07-21T05:56:59.862Z,3268.00
2018-07-21T05:57:59.829Z,3336.00
2018-07-21T05:58:59.817Z,3428.00
2018-07-21T05:59:59.804Z,3508.00
2018-07-21T06:00:59.836Z,3608.00
2018-07-21T06:01:59.807Z,3764.00
2018-07-21T06:02:59.792Z,3936.00
2018-07-21T06:03:59.759Z,4040.00
2018-07-21T06:04:59.752Z,3940.00
2018-07-21T06:05:59.731Z,3668.00
2018-07-21T06:06:59.752Z,3812.00
2018-07-21T06:07:59.712Z,3924.00
2018-07-21T06:08:59.701Z,4096.00
2018-07-21T06:09:59.693Z,4344.00
2018-07-21T06:10:59.725Z,4608.00
2018-07-21T06:11:59.694Z,4856.00
2018-07-21T06:12:59.653Z,5124.00
2018-07-21T06:13:59.639Z,5608.00
2018-07-21T06:14:59.638Z,5192.00
2018-07-21T06:15:59.623Z,5504.00
2018-07-21T06:16:59.676Z,6160.00
2018-07-21T06:17:59.595Z,6328.00
2018-07-21T06:18:59.585Z,8332.00
2018-07-21T06:19:59.581Z,8324.00
2018-07-21T06:20:59.565Z,5348.00
2018-07-21T06:21:59.584Z,5284.00
2018-07-21T06:22:59.544Z,4800.00
2018-07-21T06:23:59.525Z,4796.00
2018-07-21T06:24:59.521Z,5084.00
2018-07-21T06:25:59.509Z,5648.00
2018-07-21T06:26:59.518Z,5896.00
2018-07-21T06:27:59.499Z,6864.00
2018-07-21T06:28:59.468Z,11908.00
2018-07-21T06:29:59.459Z,6088.00
2018-07-21T06:30:59.451Z,5964.00
2018-07-21T06:31:59.468Z,7808.00
2018-07-21T06:32:59.480Z,10736.00
2018-07-21T06:33:59.419Z,12384.00
2018-07-21T06:34:59.406Z,8500.00
2018-07-21T06:35:59.392Z,6888.00
2018-07-21T06:36:59.410Z,6948.00
2018-07-21T06:37:59.370Z,7804.00
2018-07-21T06:38:59.353Z,10008.00
2018-07-21T06:39:59.341Z,13932.00
2018-07-21T06:40:59.334Z,16604.00
2018-07-21T06:41:59.341Z,25152.00
2018-07-21T06:42:59.313Z,23264.00
2018-07-21T06:43:59.374Z,18592.00
2018-07-21T06:44:59.294Z,19872.00
2018-07-21T06:45:59.270Z,13308.00
2018-07-21T06:46:59.292Z,11024.00
2018-07-21T06:47:59.247Z,9804.00
2018-07-21T06:48:59.246Z,9136.00
2018-07-21T06:49:59.232Z,8800.00
2018-07-21T06:50:59.216Z,8728.00
2018-07-21T06:51:59.236Z,8496.00
2018-07-21T06:52:59.197Z,8524.00
2018-07-21T06:53:59.221Z,10644.00
2018-07-21T06:54:59.222Z,10872.00
2018-07-21T06:55:59.156Z,8940.00
2018-07-21T06:56:59.183Z,8916.00
2018-07-21T06:57:59.135Z,11680.00
2018-07-21T06:58:59.138Z,8960.00
2018-07-21T06:59:59.115Z,9196.00
2018-07-21T07:00:59.107Z,8928.00
2018-07-21T07:01:59.119Z,9136.00
2018-07-21T07:02:59.084Z,9292.00
2018-07-21T07:03:59.076Z,9348.00
2018-07-21T07:04:59.056Z,10212.00
2018-07-21T07:05:59.044Z,9576.00
2018-07-21T07:06:59.094Z,9656.00
2018-07-21T07:07:59.024Z,9916.00
2018-07-21T07:08:59.014Z,10928.00
2018-07-21T07:09:58.998Z,12812.00
2018-07-21T07:10:58.989Z,17472.00
2018-07-21T07:11:59.008Z,20896.00
2018-07-21T07:12:58.964Z,21216.00
2018-07-21T07:13:58.956Z,20896.00
2018-07-21T07:14:58.951Z,21376.00
2018-07-21T07:15:58.930Z,20160.00
2018-07-21T07:16:58.959Z,18432.00
2018-07-21T07:17:58.913Z,17504.00
2018-07-21T07:18:58.900Z,16436.00
2018-07-21T07:19:58.891Z,15004.00
2018-07-21T07:20:58.876Z,14236.00
2018-07-21T07:21:58.892Z,13648.00
2018-07-21T07:22:58.861Z,13584.00
2018-07-21T07:23:58.841Z,13416.00
2018-07-21T07:24:58.832Z,13316.00
2018-07-21T07:25:58.825Z,13304.00
2018-07-21T07:26:58.827Z,14020.00
2018-07-21T07:27:58.798Z,13548.00
2018-07-21T07:28:58.787Z,12844.00
2018-07-21T07:29:58.770Z,12852.00
2018-07-21T07:30:58.767Z,12912.00
2018-07-21T07:31:58.830Z,13156.00
2018-07-21T07:32:58.795Z,13396.00
2018-07-21T07:33:58.733Z,13936.00
2018-07-21T07:34:58.711Z,14396.00
2018-07-21T07:35:58.711Z,14032.00
2018-07-21T07:36:58.713Z,14032.00
2018-07-21T07:37:58.686Z,13696.00
2018-07-21T07:38:58.672Z,13248.00
2018-07-21T07:39:58.656Z,13084.00
2018-07-21T07:40:58.652Z,13060.00
2018-07-21T07:41:58.664Z,13000.00
2018-07-21T07:42:58.623Z,13232.00
2018-07-21T07:43:58.612Z,13648.00
2018-07-21T07:44:58.602Z,14140.00
2018-07-21T07:45:58.594Z,14888.00
2018-07-21T07:46:58.599Z,15192.00
2018-07-21T07:47:58.562Z,15352.00
2018-07-21T07:48:58.560Z,15432.00
2018-07-21T07:49:58.545Z,15584.00
2018-07-21T07:50:58.533Z,16088.00
2018-07-21T07:51:58.542Z,16340.00
2018-07-21T07:52:58.516Z,16408.00
2018-07-21T07:53:58.500Z,16776.00
2018-07-21T07:54:58.487Z,18016.00
2018-07-21T07:55:58.480Z,21088.00
2018-07-21T07:56:58.491Z,22272.00
2018-07-21T07:57:58.458Z,23264.00
2018-07-21T07:58:58.438Z,23808.00
2018-07-21T07:59:58.428Z,18656.00
2018-07-21T08:00:58.424Z,23040.00
2018-07-21T08:01:58.438Z,25888.00
2018-07-21T08:02:58.434Z,24384.00
2018-07-21T08:03:58.427Z,22752.00
2018-07-21T08:04:58.376Z,21856.00
2018-07-21T08:05:58.362Z,22944.00
2018-07-21T08:06:58.376Z,23104.00
2018-07-21T08:07:58.338Z,23296.00
2018-07-21T08:08:58.332Z,24704.00
2018-07-21T08:09:58.312Z,27488.00
2018-07-21T08:10:58.352Z,28736.00
2018-07-21T08:11:58.314Z,29888.00
2018-07-21T08:12:58.286Z,30304.00
2018-07-21T08:13:58.266Z,32448.00
2018-07-21T08:14:58.271Z,27328.00
2018-07-21T08:15:58.252Z,31584.00
2018-07-21T08:16:58.260Z,24320.00
2018-07-21T08:17:58.226Z,20736.00
2018-07-21T08:18:58.216Z,18784.00
2018-07-21T08:19:58.198Z,19296.00
2018-07-21T08:20:58.199Z,22816.00
2018-07-21T08:21:58.206Z,25888.00
2018-07-21T08:22:58.222Z,31776.00
2018-07-21T08:23:58.190Z,30976.00
2018-07-21T08:24:58.157Z,24896.00
2018-07-21T08:25:58.138Z,45600.00
2018-07-21T08:26:58.155Z,47520.00
2018-07-21T08:27:58.113Z,40928.00
2018-07-21T08:28:58.157Z,26912.00
2018-07-21T08:29:58.095Z,23392.00
2018-07-21T08:30:58.076Z,20064.00
2018-07-21T08:31:58.097Z,24928.00
2018-07-21T08:32:58.057Z,29568.00
2018-07-21T08:33:58.042Z,24960.00
2018-07-21T08:34:58.042Z,25664.00
2018-07-21T08:35:58.025Z,30016.00
2018-07-21T08:36:58.040Z,30464.00
2018-07-21T08:37:58.008Z,27136.00
2018-07-21T08:38:57.987Z,22528.00
2018-07-21T08:39:57.979Z,22784.00
2018-07-21T08:40:57.971Z,24512.00
2018-07-21T08:41:57.983Z,34464.00
2018-07-21T08:42:57.942Z,39520.00
2018-07-21T08:43:57.939Z,34912.00
2018-07-21T08:44:57.923Z,40608.00
2018-07-21T08:45:57.913Z,30848.00
2018-07-21T08:46:57.932Z,35712.00
2018-07-21T08:47:57.889Z,41216.00
2018-07-21T08:48:57.889Z,39456.00
2018-07-21T08:49:57.876Z,40992.00
2018-07-21T08:50:57.856Z,44384.00
2018-07-21T08:51:57.868Z,36640.00
2018-07-21T08:52:57.899Z,42016.00
2018-07-21T08:53:57.865Z,27648.00
2018-07-21T08:54:57.810Z,21344.00
2018-07-21T08:55:57.856Z,23808.00
2018-07-21T08:56:57.818Z,35776.00
2018-07-21T08:57:57.784Z,36224.00
2018-07-21T08:58:57.770Z,24928.00
2018-07-21T08:59:57.766Z,26560.00
2018-07-21T09:00:57.746Z,28576.00
2018-07-21T09:01:57.771Z,33664.00
2018-07-21T09:02:57.725Z,33888.00
2018-07-21T09:03:57.715Z,37312.00
2018-07-21T09:04:57.712Z,31136.00
2018-07-21T09:05:57.692Z,35264.00
2018-07-21T09:06:57.720Z,33856.00
2018-07-21T09:07:57.673Z,36544.00
2018-07-21T09:08:57.671Z,47936.00
2018-07-21T09:09:57.653Z,35488.00
2018-07-21T09:10:57.644Z,33056.00
2018-07-21T09:11:57.666Z,31040.00
2018-07-21T09:12:57.617Z,29632.00
2018-07-21T09:13:57.617Z,21984.00
2018-07-21T09:14:57.596Z,24960.00
2018-07-21T09:15:57.591Z,28128.00
2018-07-21T09:16:57.610Z,28864.00
2018-07-21T09:17:57.569Z,36512.00
2018-07-21T09:18:57.559Z,46688.00
2018-07-21T09:19:57.547Z,58432.00
2018-07-21T09:20:57.540Z,54208.00
2018-07-21T09:21:57.524Z,51232.00
2018-07-21T09:22:57.537Z,42688.00
2018-07-21T09:23:57.506Z,35424.00
2018-07-21T09:24:57.486Z,29920.00
2018-07-21T09:25:57.486Z,30624.00
2018-07-21T09:26:57.471Z,36480.00
2018-07-21T09:27:57.491Z,32256.00
2018-07-21T09:28:57.449Z,29888.00
2018-07-21T09:29:57.483Z,31520.00
2018-07-21T09:30:57.482Z,36224.00
2018-07-21T09:31:57.416Z,45216.00
2018-07-21T09:32:57.407Z,55040.00
2018-07-21T09:33:57.412Z,62016.00
2018-07-21T09:34:57.388Z,64736.00
2018-07-21T09:35:57.372Z,54112.00
2018-07-21T09:36:57.357Z,40512.00
2018-07-21T09:37:57.349Z,41184.00
2018-07-21T09:38:57.358Z,36256.00
2018-07-21T09:39:57.328Z,29376.00
2018-07-21T09:40:57.322Z,33536.00
2018-07-21T09:41:57.309Z,30912.00
2018-07-21T09:42:57.295Z,28288.00
2018-07-21T09:43:57.306Z,33888.00
2018-07-21T09:44:57.277Z,42048.00
2018-07-21T09:45:57.258Z,34144.00
2018-07-21T09:46:57.257Z,32224.00
2018-07-21T09:47:57.237Z,30592.00
2018-07-21T09:48:57.256Z,35648.00
2018-07-21T09:49:57.219Z,35744.00
2018-07-21T09:50:57.210Z,40864.00
2018-07-21T09:51:57.195Z,84224.00
2018-07-21T09:52:57.186Z,92992.00
2018-07-21T09:53:57.196Z,92192.00
2018-07-21T09:54:57.171Z,92992.00
2018-07-21T09:55:57.227Z,88000.00
2018-07-21T09:56:57.140Z,74624.00
2018-07-21T09:57:57.140Z,80544.00
2018-07-21T09:58:57.160Z,73504.00
2018-07-21T09:59:57.115Z,53792.00
2018-07-21T10:00:57.108Z,47232.00
2018-07-21T10:01:57.153Z,51360.00
2018-07-21T10:02:57.130Z,43168.00
2018-07-21T10:03:57.135Z,45056.00
2018-07-21T10:04:57.092Z,55968.00
2018-07-21T10:05:57.054Z,65792.00
2018-07-21T10:06:57.053Z,67072.00
2018-07-21T10:07:57.037Z,61792.00
2018-07-21T10:08:57.023Z,68032.00
2018-07-21T10:09:57.047Z,55072.00
2018-07-21T10:10:57.006Z,66688.00
2018-07-21T10:11:57.005Z,59424.00
2018-07-21T10:12:56.988Z,55808.00
2018-07-21T10:13:56.976Z,73760.00
2018-07-21T10:14:56.994Z,86560.00
2018-07-21T10:15:56.957Z,93600.00
2018-07-21T10:16:56.956Z,92896.00
2018-07-21T10:17:56.944Z,91872.00
2018-07-21T10:18:56.930Z,88512.00
2018-07-21T10:19:56.952Z,85856.00
2018-07-21T10:20:56.908Z,78784.00
2018-07-21T10:21:56.978Z,89600.00
2018-07-21T10:22:56.896Z,92416.00
2018-07-21T10:23:58.006Z,93024.00
2018-07-21T10:24:56.903Z,89408.00
2018-07-21T10:25:56.868Z,88704.00
2018-07-21T10:26:56.861Z,89088.00
2018-07-21T10:27:56.851Z,89248.00
2018-07-21T10:28:56.842Z,88704.00
2018-07-21T10:29:56.853Z,82144.00
2018-07-21T10:30:56.824Z,91168.00
2018-07-21T10:31:56.809Z,95776.00
2018-07-21T10:32:56.804Z,88160.00
2018-07-21T10:33:56.791Z,88960.00
2018-07-21T10:34:56.810Z,95808.00
2018-07-21T10:35:56.802Z,92352.00
2018-07-21T10:36:56.771Z,90848.00
2018-07-21T10:37:56.753Z,93056.00
2018-07-21T10:38:56.752Z,95520.00
2018-07-21T10:39:56.762Z,95392.00
2018-07-21T10:40:56.731Z,93984.00
2018-07-21T10:41:56.724Z,92576.00
2018-07-21T10:42:56.713Z,90592.00
2018-07-21T10:43:56.705Z,91584.00
2018-07-21T10:44:56.723Z,87296.00
2018-07-21T10:45:56.680Z,86496.00
2018-07-21T10:46:56.680Z,92544.00
2018-07-21T10:47:56.687Z,90944.00
2018-07-21T10:48:56.664Z,88384.00
2018-07-21T10:49:56.686Z,90752.00
2018-07-21T10:50:56.686Z,93088.00
2018-07-21T10:51:56.630Z,94976.00
2018-07-21T10:52:56.624Z,90688.00
2018-07-21T10:53:56.615Z,92416.00
2018-07-21T10:54:56.632Z,93120.00
2018-07-21T10:55:56.597Z,91648.00
2018-07-21T10:56:56.593Z,94432.00
2018-07-21T10:57:56.576Z,93280.00
2018-07-21T10:58:56.572Z,89568.00
2018-07-21T10:59:56.584Z,88544.00
2018-07-21T11:00:56.553Z,86976.00
2018-07-21T11:01:56.546Z,85216.00
2018-07-21T11:02:56.540Z,85216.00
2018-07-21T11:03:56.523Z,81888.00
2018-07-21T11:04:56.541Z,80864.00
2018-07-21T11:05:56.511Z,78496.00
2018-07-21T11:06:56.492Z,82432.00
2018-07-21T11:07:56.504Z,83968.00
2018-07-21T11:08:56.477Z,88000.00
2018-07-21T11:09:56.488Z,87072.00
2018-07-21T11:10:56.465Z,83744.00
2018-07-21T11:11:56.508Z,62944.00
2018-07-21T11:12:56.645Z,52640.00
2018-07-21T11:13:56.462Z,46912.00
2018-07-21T11:14:56.450Z,57536.00
2018-07-21T11:15:56.413Z,68128.00
2018-07-21T11:16:56.411Z,78368.00
2018-07-21T11:17:56.402Z,89152.00
2018-07-21T11:18:56.394Z,79616.00
2018-07-21T11:19:56.402Z,76704.00
2018-07-21T11:20:56.375Z,66464.00
2018-07-21T11:21:56.440Z,57760.00
2018-07-21T11:22:56.349Z,55232.00
2018-07-21T11:23:56.347Z,63200.00
2018-07-21T11:24:56.353Z,55840.00
2018-07-21T11:25:56.328Z,50944.00
2018-07-21T11:26:56.315Z,56064.00
2018-07-21T11:27:56.306Z,48672.00
2018-07-21T11:28:56.290Z,40512.00
2018-07-21T11:29:56.312Z,39424.00
2018-07-21T11:30:56.275Z,39744.00
2018-07-21T11:31:56.271Z,38880.00
2018-07-21T11:32:56.251Z,37600.00
2018-07-21T11:33:56.250Z,36960.00
2018-07-21T11:34:56.257Z,36384.00
2018-07-21T11:35:56.463Z,36736.00
2018-07-21T11:36:56.216Z,43232.00
2018-07-21T11:37:56.209Z,38592.00
2018-07-21T11:38:56.192Z,40992.00
2018-07-21T11:39:56.203Z,41824.00
2018-07-21T11:40:56.179Z,54752.00
2018-07-21T11:41:56.171Z,48768.00
2018-07-21T11:42:56.153Z,51296.00
2018-07-21T11:43:56.149Z,46944.00
2018-07-21T11:44:56.196Z,51424.00
2018-07-21T11:45:56.163Z,47008.00
2018-07-21T11:46:56.114Z,42944.00
2018-07-21T11:47:56.109Z,42944.00
2018-07-21T11:48:56.097Z,46464.00
2018-07-21T11:49:56.113Z,45792.00
2018-07-21T11:50:56.077Z,44288.00
2018-07-21T11:51:56.064Z,53600.00
2018-07-21T11:52:56.063Z,47392.00
2018-07-21T11:53:56.042Z,51424.00
2018-07-21T11:54:56.066Z,51616.00
2018-07-21T11:55:56.025Z,53536.00
2018-07-21T11:56:56.019Z,55808.00
2018-07-21T11:57:56.007Z,45024.00
2018-07-21T11:58:56.001Z,47776.00
2018-07-21T11:59:56.009Z,56736.00
2018-07-21T12:00:55.978Z,49568.00
2018-07-21T12:01:55.988Z,47872.00
2018-07-21T12:02:55.958Z,48992.00
2018-07-21T12:03:55.948Z,56480.00
2018-07-21T12:04:55.964Z,49600.00
2018-07-21T12:05:55.937Z,46048.00
2018-07-21T12:06:55.915Z,44928.00
2018-07-21T12:07:55.916Z,44672.00
2018-07-21T12:08:55.896Z,43936.00
2018-07-21T12:09:55.912Z,43872.00
2018-07-21T12:10:55.883Z,45600.00
2018-07-21T12:11:55.865Z,48288.00
2018-07-21T12:12:55.875Z,49184.00
2018-07-21T12:13:55.853Z,51200.00
2018-07-21T12:14:55.862Z,57664.00